createdAt,value
2022-10-28T00:01:25.890Z,11.20
2022-10-28T00:03:59.692Z,11.20
2022-10-28T00:06:33.756Z,11.20
2022-10-28T00:09:01.836Z,11.10
2022-10-28T00:11:32.804Z,11.10
2022-10-28T00:14:03.112Z,11.10
2022-10-28T00:16:33.647Z,11.20
2022-10-28T00:19:03.122Z,11.20
2022-10-28T00:21:33.696Z,11.20
2022-10-28T00:24:01.895Z,11.20
2022-10-28T00:26:32.257Z,11.20
2022-10-28T00:29:03.414Z,11.20
2022-10-28T00:31:32.474Z,11.10
2022-10-28T00:34:02.315Z,11.10
2022-10-28T00:36:34.393Z,11.10
2022-10-28T00:39:06.682Z,11.20
2022-10-28T00:41:37.419Z,11.20
2022-10-28T00:44:42.637Z,11.20
2022-10-28T00:47:34.740Z,11.20
2022-10-28T00:50:16.074Z,11.30
2022-10-28T00:52:48.050Z,11.30
2022-10-28T00:55:17.118Z,11.40
2022-10-28T00:57:50.212Z,11.50
2022-10-28T01:00:22.427Z,11.50
2022-10-28T01:02:51.335Z,11.50
2022-10-28T01:05:23.659Z,11.50
2022-10-28T01:07:53.408Z,11.40
2022-10-28T01:10:30.606Z,11.40
2022-10-28T01:12:58.450Z,11.40
2022-10-28T01:15:32.151Z,11.40
2022-10-28T01:18:27.984Z,11.30
2022-10-28T01:21:40.766Z,11.20
2022-10-28T01:24:37.282Z,11.10
2022-10-28T01:27:17.321Z,11.10
2022-10-28T01:29:47.980Z,11.10
2022-10-28T01:32:20.158Z,11.10
2022-10-28T01:35:06.175Z,11.10
2022-10-28T01:38:12.471Z,11.20
2022-10-28T01:41:10.903Z,11.20
2022-10-28T01:43:51.382Z,11.20
2022-10-28T01:46:30.096Z,11.20
2022-10-28T01:49:06.371Z,11.20
2022-10-28T01:51:39.640Z,11.20
2022-10-28T01:54:13.299Z,11.20
2022-10-28T01:56:47.966Z,11.20
2022-10-28T01:59:23.591Z,11.20
2022-10-28T02:01:51.987Z,11.20
2022-10-28T02:04:20.125Z,11.10
2022-10-28T02:06:52.350Z,11.10
2022-10-28T02:09:40.265Z,11.10
2022-10-28T02:12:29.601Z,11.00
2022-10-28T02:15:15.690Z,10.90
2022-10-28T02:18:07.959Z,10.80
2022-10-28T02:20:54.017Z,10.90
2022-10-28T02:23:25.002Z,10.90
2022-10-28T02:26:20.682Z,11.00
2022-10-28T02:28:52.255Z,11.10
2022-10-28T02:31:29.856Z,11.00
2022-10-28T02:34:03.112Z,11.00
2022-10-28T02:36:35.663Z,11.00
2022-10-28T02:39:05.367Z,10.90
2022-10-28T02:41:45.495Z,10.90
2022-10-28T02:44:23.802Z,11.00
2022-10-28T02:46:59.043Z,11.00
2022-10-28T02:49:29.053Z,11.10
2022-10-28T02:52:01.314Z,11.10
2022-10-28T02:54:37.281Z,11.10
2022-10-28T02:57:18.864Z,11.10
2022-10-28T02:59:57.250Z,11.10
2022-10-28T03:02:25.621Z,11.00
2022-10-28T03:04:54.205Z,11.00
2022-10-28T03:07:22.550Z,11.00
2022-10-28T03:09:50.526Z,11.00
2022-10-28T03:12:18.839Z,11.00
2022-10-28T03:14:47.370Z,11.00
2022-10-28T03:17:15.281Z,10.80
2022-10-28T03:19:43.131Z,10.80
2022-10-28T03:22:11.055Z,10.80
2022-10-28T03:24:38.927Z,10.80
2022-10-28T03:27:06.895Z,10.90
2022-10-28T03:29:34.788Z,10.90
2022-10-28T03:32:02.619Z,10.90
2022-10-28T03:34:30.534Z,10.90
2022-10-28T03:36:58.640Z,10.90
2022-10-28T03:39:27.936Z,10.90
2022-10-28T03:41:56.011Z,10.90
2022-10-28T03:44:28.227Z,10.90
2022-10-28T03:46:58.709Z,10.90
2022-10-28T03:49:26.692Z,10.80
2022-10-28T03:51:55.714Z,10.80
2022-10-28T03:54:23.660Z,10.70
2022-10-28T03:56:51.643Z,10.50
2022-10-28T03:59:20.406Z,10.40
2022-10-28T04:01:48.532Z,10.50
2022-10-28T04:04:16.505Z,10.50
2022-10-28T04:06:44.351Z,10.50
2022-10-28T04:09:12.217Z,10.60
2022-10-28T04:11:40.062Z,10.60
2022-10-28T04:14:07.884Z,10.70
2022-10-28T04:16:35.907Z,10.60
2022-10-28T04:19:03.812Z,10.70
2022-10-28T04:21:31.654Z,10.60
2022-10-28T04:23:59.590Z,10.70
2022-10-28T04:26:27.453Z,10.70
2022-10-28T04:28:55.335Z,10.70
2022-10-28T04:31:25.073Z,10.60
2022-10-28T04:33:52.964Z,10.60
2022-10-28T04:36:20.917Z,10.60
2022-10-28T04:38:50.463Z,10.70
2022-10-28T04:41:18.666Z,10.70
2022-10-28T04:43:46.515Z,10.80
2022-10-28T04:46:14.498Z,10.70
2022-10-28T04:48:42.364Z,10.70
2022-10-28T04:51:10.454Z,10.80
2022-10-28T04:53:38.321Z,10.80
2022-10-28T04:56:06.480Z,10.90
2022-10-28T04:58:34.441Z,10.90
2022-10-28T05:01:10.495Z,10.90
2022-10-28T05:03:38.626Z,10.80
2022-10-28T05:06:06.629Z,10.70
2022-10-28T05:08:34.548Z,10.60
2022-10-28T05:11:02.411Z,10.60
2022-10-28T05:13:30.420Z,10.60
2022-10-28T05:15:58.324Z,10.60
2022-10-28T05:18:26.285Z,10.60
2022-10-28T05:20:55.953Z,10.60
2022-10-28T05:23:27.141Z,10.70
2022-10-28T05:25:57.903Z,10.70
2022-10-28T05:28:25.809Z,10.80
2022-10-28T05:30:53.691Z,10.90
2022-10-28T05:33:21.970Z,10.90
2022-10-28T05:35:52.430Z,10.90
2022-10-28T05:38:20.421Z,11.00
2022-10-28T05:40:51.311Z,11.00
2022-10-28T05:43:23.021Z,11.00
2022-10-28T05:45:58.452Z,11.00
2022-10-28T05:48:26.708Z,10.90
2022-10-28T05:50:54.571Z,11.00
2022-10-28T05:53:22.471Z,11.00
2022-10-28T05:55:50.325Z,11.00
2022-10-28T05:58:18.243Z,11.00
2022-10-28T06:00:46.260Z,11.10
2022-10-28T06:03:14.185Z,11.10
2022-10-28T06:05:45.997Z,11.20
2022-10-28T06:08:16.063Z,11.20
2022-10-28T06:10:50.394Z,11.30
2022-10-28T06:13:18.297Z,11.40
2022-10-28T06:15:51.618Z,11.40
2022-10-28T06:18:20.040Z,11.50
2022-10-28T06:20:55.170Z,11.60
2022-10-28T06:23:24.308Z,11.60
2022-10-28T06:28:26.153Z,11.70
2022-10-28T06:30:54.110Z,11.70
2022-10-28T06:33:21.992Z,11.80
2022-10-28T06:35:49.838Z,11.80
2022-10-28T06:38:20.271Z,11.80
2022-10-28T06:40:51.623Z,11.80
2022-10-28T06:43:20.567Z,11.80
2022-10-28T06:45:54.628Z,11.80
2022-10-28T06:48:24.794Z,11.80
2022-10-28T06:50:52.769Z,11.90
2022-10-28T06:53:20.706Z,11.90
2022-10-28T06:55:56.145Z,11.90
2022-10-28T06:58:25.225Z,11.90
2022-10-28T07:00:53.584Z,11.90
2022-10-28T07:03:21.757Z,11.80
2022-10-28T07:05:52.542Z,11.80
2022-10-28T07:08:21.023Z,11.80
2022-10-28T07:11:00.056Z,11.90
2022-10-28T07:13:28.315Z,12.00
2022-10-28T07:16:01.220Z,12.10
2022-10-28T07:18:31.186Z,12.30
2022-10-28T07:21:03.058Z,12.30
2022-10-28T07:23:35.298Z,12.40
2022-10-28T07:26:03.201Z,12.40
2022-10-28T07:28:32.080Z,12.50
2022-10-28T07:31:06.303Z,12.50
2022-10-28T07:33:37.324Z,12.50
2022-10-28T07:36:06.995Z,12.60
2022-10-28T07:38:35.769Z,12.70
2022-10-28T07:41:10.752Z,12.70
2022-10-28T07:43:40.024Z,12.80
2022-10-28T07:46:08.825Z,12.90
2022-10-28T07:48:37.998Z,13.00
2022-10-28T07:51:08.714Z,13.10
2022-10-28T07:53:36.769Z,13.20
2022-10-28T07:56:07.468Z,13.80
2022-10-28T07:58:35.441Z,14.40
2022-10-28T08:01:07.935Z,14.90
2022-10-28T08:03:39.092Z,15.00
2022-10-28T08:06:19.377Z,15.10
2022-10-28T08:08:48.900Z,15.10
2022-10-28T08:11:24.798Z,15.10
2022-10-28T08:13:56.953Z,15.20
2022-10-28T08:16:30.189Z,15.40
2022-10-28T08:18:58.348Z,15.50
2022-10-28T08:21:28.121Z,15.60
2022-10-28T08:23:56.388Z,15.50
2022-10-28T08:26:25.571Z,15.50
2022-10-28T08:28:54.094Z,15.60
2022-10-28T08:31:21.997Z,15.60
2022-10-28T08:33:49.845Z,15.70
2022-10-28T08:36:18.272Z,15.70
2022-10-28T08:38:47.715Z,15.70
2022-10-28T08:41:21.105Z,15.70
2022-10-28T08:44:17.717Z,15.70
2022-10-28T08:47:00.776Z,15.70
2022-10-28T08:49:34.368Z,15.70
2022-10-28T08:52:12.574Z,15.80
2022-10-28T08:54:59.677Z,16.00
2022-10-28T08:57:34.202Z,16.30
2022-10-28T09:00:04.274Z,16.50
2022-10-28T09:02:44.304Z,16.80
2022-10-28T09:05:32.181Z,17.10
2022-10-28T09:08:00.446Z,17.30
2022-10-28T09:11:07.544Z,17.50
2022-10-28T09:13:35.486Z,17.90
2022-10-28T09:16:12.424Z,18.30
2022-10-28T09:18:45.870Z,18.60
2022-10-28T09:21:38.526Z,19.40
2022-10-28T09:24:21.429Z,20.30
2022-10-28T09:27:17.922Z,20.60
2022-10-28T09:30:10.416Z,20.90
2022-10-28T09:32:54.590Z,21.30
2022-10-28T09:35:29.789Z,21.80
2022-10-28T09:38:27.153Z,22.40
2022-10-28T09:41:17.970Z,22.90
2022-10-28T09:43:58.267Z,22.80
2022-10-28T09:46:34.672Z,23.10
2022-10-28T09:49:12.743Z,23.10
2022-10-28T09:52:06.537Z,22.50
2022-10-28T09:54:42.473Z,21.70
2022-10-28T09:57:12.578Z,21.40
2022-10-28T09:59:42.974Z,21.50
2022-10-28T10:02:30.239Z,21.90
2022-10-28T10:05:00.205Z,21.70
2022-10-28T10:07:39.556Z,21.40
2022-10-28T10:10:14.896Z,21.00
2022-10-28T10:12:52.400Z,21.30
2022-10-28T10:15:49.350Z,21.70
2022-10-28T10:18:22.050Z,22.50
2022-10-28T10:20:56.946Z,22.60
2022-10-28T10:23:32.931Z,23.20
2022-10-28T10:26:06.687Z,23.90
2022-10-28T10:28:46.219Z,24.40
2022-10-28T10:31:23.266Z,24.50
2022-10-28T10:33:54.736Z,24.60
2022-10-28T10:36:29.297Z,24.90
2022-10-28T10:39:01.743Z,25.20
2022-10-28T10:41:38.708Z,25.50
2022-10-28T10:44:21.938Z,25.80
2022-10-28T10:47:05.815Z,25.30
2022-10-28T10:49:37.299Z,24.20
2022-10-28T10:52:19.242Z,23.10
2022-10-28T10:55:04.169Z,22.40
2022-10-28T10:57:34.043Z,22.10
2022-10-28T11:00:02.468Z,21.90
2022-10-28T11:02:39.116Z,21.60
2022-10-28T11:05:11.287Z,21.60
2022-10-28T11:07:46.738Z,21.60
2022-10-28T11:10:33.789Z,21.70
2022-10-28T11:13:26.294Z,21.70
2022-10-28T11:16:02.406Z,22.10
2022-10-28T11:18:40.366Z,22.50
2022-10-28T11:21:26.780Z,22.50
2022-10-28T11:24:22.780Z,22.40
2022-10-28T11:27:03.233Z,22.10
2022-10-28T11:29:31.346Z,22.10
2022-10-28T11:32:05.723Z,22.60
2022-10-28T11:34:40.058Z,23.60
2022-10-28T11:37:19.569Z,24.10
2022-10-28T11:39:59.923Z,24.20
2022-10-28T11:42:48.684Z,23.60
2022-10-28T11:46:12.171Z,23.40
2022-10-28T11:49:10.721Z,23.90
2022-10-28T11:52:06.998Z,24.50
2022-10-28T11:54:54.179Z,24.50
2022-10-28T11:58:20.335Z,23.80
2022-10-28T12:01:12.206Z,24.10
2022-10-28T12:03:45.769Z,25.40
2022-10-28T12:06:48.354Z,26.30
2022-10-28T12:09:47.171Z,26.80
2022-10-28T12:12:52.321Z,27.10
2022-10-28T12:15:47.247Z,27.30
2022-10-28T12:18:38.345Z,27.60
2022-10-28T12:21:28.958Z,27.70
2022-10-28T12:24:01.156Z,27.20
2022-10-28T12:26:44.519Z,26.40
2022-10-28T12:29:35.908Z,25.80
2022-10-28T12:32:09.170Z,25.40
2022-10-28T12:34:54.501Z,25.30
2022-10-28T12:38:04.363Z,25.90
2022-10-28T12:40:54.283Z,25.30
2022-10-28T12:43:32.605Z,24.30
2022-10-28T12:46:18.825Z,23.70
2022-10-28T12:48:55.293Z,23.30
2022-10-28T12:51:41.843Z,22.90
2022-10-28T12:54:31.032Z,22.60
2022-10-28T12:57:15.151Z,22.40
2022-10-28T12:59:52.390Z,22.30
2022-10-28T13:02:42.478Z,22.20
2022-10-28T13:05:23.279Z,22.10
2022-10-28T13:08:09.879Z,22.10
2022-10-28T13:10:56.887Z,22.00
2022-10-28T13:13:47.810Z,22.00
2022-10-28T13:16:26.146Z,22.10
2022-10-28T13:19:05.206Z,22.40
2022-10-28T13:22:01.201Z,22.80
2022-10-28T13:24:53.991Z,24.10
2022-10-28T13:27:23.125Z,25.10
2022-10-28T13:29:56.025Z,25.10
2022-10-28T13:32:38.836Z,25.50
2022-10-28T13:35:23.673Z,25.90
2022-10-28T13:37:54.178Z,26.30
2022-10-28T13:40:32.583Z,26.30
2022-10-28T13:43:02.270Z,26.30
2022-10-28T13:45:54.380Z,25.80
2022-10-28T13:48:31.665Z,26.40
2022-10-28T13:51:15.037Z,27.10
2022-10-28T13:54:00.634Z,27.80
2022-10-28T13:56:34.887Z,28.40
2022-10-28T13:59:24.619Z,29.10
2022-10-28T14:02:40.529Z,29.60
2022-10-28T14:05:14.758Z,29.50
2022-10-28T14:07:56.492Z,28.30
2022-10-28T14:10:34.081Z,27.40
2022-10-28T14:13:06.119Z,26.90
2022-10-28T14:15:39.500Z,26.40
2022-10-28T14:18:41.335Z,26.40
2022-10-28T14:21:04.238Z,26.50
2022-10-28T14:23:35.277Z,26.50
2022-10-28T14:26:07.162Z,26.70
2022-10-28T14:28:35.251Z,26.90
2022-10-28T14:31:12.656Z,27.30
2022-10-28T14:33:50.357Z,27.80
2022-10-28T14:36:21.872Z,27.60
2022-10-28T14:39:08.031Z,27.10
2022-10-28T14:41:44.948Z,25.80
2022-10-28T14:44:33.617Z,25.10
2022-10-28T14:47:38.983Z,24.60
2022-10-28T14:50:42.076Z,24.10
2022-10-28T14:53:19.765Z,23.70
2022-10-28T14:56:00.837Z,23.30
2022-10-28T14:58:32.464Z,23.00
2022-10-28T15:01:25.555Z,22.80
2022-10-28T15:04:05.300Z,22.50
2022-10-28T15:06:47.035Z,22.20
2022-10-28T15:09:26.521Z,21.90
2022-10-28T15:12:02.958Z,21.60
2022-10-28T15:14:34.439Z,21.10
2022-10-28T15:17:22.682Z,20.60
2022-10-28T15:19:53.541Z,20.10
2022-10-28T15:22:34.129Z,19.90
2022-10-28T15:25:16.406Z,19.90
2022-10-28T15:27:47.935Z,19.80
2022-10-28T15:30:24.844Z,19.70
2022-10-28T15:32:55.055Z,19.40
2022-10-28T15:35:33.859Z,19.00
2022-10-28T15:38:03.182Z,18.80
2022-10-28T15:40:36.323Z,18.70
2022-10-28T15:43:04.374Z,18.60
2022-10-28T15:45:42.379Z,18.50
2022-10-28T15:48:19.880Z,18.50
2022-10-28T15:51:20.821Z,18.40
2022-10-28T15:54:11.965Z,18.40
2022-10-28T15:56:57.536Z,18.40
2022-10-28T15:59:29.347Z,18.20
2022-10-28T16:02:01.538Z,18.10
2022-10-28T16:04:43.650Z,18.20
2022-10-28T16:07:12.084Z,18.10
2022-10-28T16:09:48.703Z,18.10
2022-10-28T16:12:27.557Z,18.10
2022-10-28T16:14:59.427Z,18.10
2022-10-28T16:17:34.334Z,18.00
2022-10-28T16:20:18.872Z,18.10
2022-10-28T16:22:53.784Z,18.00
2022-10-28T16:25:23.793Z,18.00
2022-10-28T16:27:52.159Z,18.10
2022-10-28T16:32:50.968Z,18.20
2022-10-28T16:35:21.345Z,18.20
2022-10-28T16:37:54.768Z,18.20
2022-10-28T16:40:49.477Z,18.20
2022-10-28T16:43:17.783Z,18.20
2022-10-28T16:45:45.847Z,18.20
2022-10-28T16:48:28.870Z,18.30
2022-10-28T16:51:06.585Z,18.30
2022-10-28T16:53:34.579Z,18.30
2022-10-28T16:56:02.606Z,18.30
2022-10-28T16:58:31.246Z,18.20
2022-10-28T17:01:02.680Z,18.20
2022-10-28T17:03:30.728Z,18.10
2022-10-28T17:05:58.592Z,18.20
2022-10-28T17:08:48.910Z,18.20
2022-10-28T17:11:17.645Z,18.20
2022-10-28T17:13:45.638Z,18.20
2022-10-28T17:16:13.943Z,18.20
2022-10-28T17:18:43.465Z,18.20
2022-10-28T17:21:11.651Z,18.10
2022-10-28T17:23:40.897Z,18.10
2022-10-28T17:26:08.835Z,18.10
2022-10-28T17:28:36.764Z,18.10
2022-10-28T17:31:06.336Z,18.10
2022-10-28T17:33:35.182Z,18.10
2022-10-28T17:36:07.876Z,18.10
2022-10-28T17:38:36.021Z,18.00
2022-10-28T17:41:05.892Z,18.00
2022-10-28T17:43:36.057Z,18.00
2022-10-28T17:46:05.377Z,17.90
2022-10-28T17:48:33.650Z,17.70
2022-10-28T17:51:01.698Z,17.70
2022-10-28T17:53:29.592Z,17.60
2022-10-28T17:56:02.177Z,17.50
2022-10-28T17:58:30.266Z,17.50
2022-10-28T18:01:07.342Z,17.40
2022-10-28T18:03:38.567Z,17.20
2022-10-28T18:06:08.825Z,17.20
2022-10-28T18:08:40.883Z,17.20
2022-10-28T18:11:10.908Z,17.10
2022-10-28T18:13:41.940Z,17.00
2022-10-28T18:16:16.129Z,17.00
2022-10-28T18:18:44.637Z,17.00
2022-10-28T18:21:14.069Z,17.10
2022-10-28T18:23:42.414Z,17.00
2022-10-28T18:26:15.547Z,16.90
2022-10-28T18:28:48.560Z,16.70
2022-10-28T18:31:24.837Z,16.70
2022-10-28T18:33:55.962Z,16.70
2022-10-28T18:36:25.080Z,16.60
2022-10-28T18:38:53.069Z,16.50
2022-10-28T18:41:26.360Z,16.50
2022-10-28T18:43:58.740Z,16.40
2022-10-28T18:46:27.767Z,16.50
2022-10-28T18:48:58.383Z,16.50
2022-10-28T18:51:26.265Z,16.50
2022-10-28T18:53:56.221Z,16.50
2022-10-28T18:56:27.131Z,16.40
2022-10-28T18:58:56.162Z,16.40
2022-10-28T19:01:29.527Z,16.40
2022-10-28T19:03:59.653Z,16.50
2022-10-28T19:06:33.564Z,16.50
2022-10-28T19:09:04.116Z,16.50
2022-10-28T19:11:33.829Z,16.50
2022-10-28T19:14:05.032Z,16.50
2022-10-28T19:16:34.473Z,16.50
2022-10-28T19:19:06.655Z,16.40
2022-10-28T19:21:35.066Z,16.20
2022-10-28T19:24:09.468Z,16.30
2022-10-28T19:26:40.621Z,16.20
2022-10-28T19:29:08.509Z,16.10
2022-10-28T19:31:41.021Z,16.10
2022-10-28T19:34:09.040Z,16.10
2022-10-28T19:36:37.016Z,16.10
2022-10-28T19:39:04.961Z,16.10
2022-10-28T19:41:35.959Z,16.10
2022-10-28T19:44:05.362Z,16.10
2022-10-28T19:46:35.813Z,16.10
2022-10-28T19:49:06.741Z,16.20
2022-10-28T19:51:42.393Z,16.20
2022-10-28T19:54:14.609Z,16.20
2022-10-28T19:56:45.373Z,16.20
2022-10-28T19:59:13.252Z,16.20
2022-10-28T20:01:42.219Z,16.20
2022-10-28T20:04:11.350Z,16.20
2022-10-28T20:06:40.958Z,16.20
2022-10-28T20:09:09.002Z,16.10
2022-10-28T20:11:39.974Z,15.90
2022-10-28T20:14:12.872Z,15.90
2022-10-28T20:16:47.081Z,15.90
2022-10-28T20:19:17.863Z,15.90
2022-10-28T20:21:46.675Z,15.90
2022-10-28T20:24:14.591Z,15.70
2022-10-28T20:26:42.496Z,15.70
2022-10-28T20:29:11.692Z,15.70
2022-10-28T20:31:40.438Z,15.70
2022-10-28T20:34:09.309Z,15.70
2022-10-28T20:36:42.148Z,15.50
2022-10-28T20:39:15.257Z,15.40
2022-10-28T20:41:45.149Z,15.30
2022-10-28T20:44:13.528Z,15.30
2022-10-28T20:46:41.757Z,15.30
2022-10-28T20:49:09.948Z,15.20
2022-10-28T20:51:38.269Z,15.20
2022-10-28T20:54:06.618Z,15.10
2022-10-28T20:56:37.218Z,15.00
2022-10-28T20:59:05.567Z,14.90
2022-10-28T21:01:36.591Z,14.80
2022-10-28T21:04:07.793Z,14.80
2022-10-28T21:06:37.305Z,14.90
2022-10-28T21:09:06.233Z,14.80
2022-10-28T21:11:34.286Z,14.70
2022-10-28T21:14:02.980Z,14.60
2022-10-28T21:16:31.662Z,14.60
2022-10-28T21:19:00.582Z,14.60
2022-10-28T21:21:29.080Z,14.60
2022-10-28T21:23:56.983Z,14.50
2022-10-28T21:26:24.916Z,14.50
2022-10-28T21:28:53.939Z,14.50
2022-10-28T21:31:27.723Z,14.50
2022-10-28T21:34:01.812Z,14.40
2022-10-28T21:36:32.880Z,14.30
2022-10-28T21:39:00.735Z,14.20
2022-10-28T21:41:28.662Z,14.00
2022-10-28T21:43:56.590Z,13.90
2022-10-28T21:46:25.317Z,13.80
2022-10-28T21:48:53.881Z,13.90
2022-10-28T21:51:21.855Z,13.90
2022-10-28T21:53:49.724Z,13.80
2022-10-28T21:56:19.785Z,13.80
2022-10-28T21:58:49.742Z,13.90
2022-10-28T22:01:23.824Z,13.90
2022-10-28T22:03:55.598Z,14.00
2022-10-28T22:06:24.132Z,13.80
2022-10-28T22:08:55.990Z,13.70
2022-10-28T22:11:25.179Z,13.50
2022-10-28T22:14:01.290Z,13.50
2022-10-28T22:16:31.301Z,13.50
2022-10-28T22:19:00.740Z,13.50
2022-10-28T22:21:31.741Z,13.50
2022-10-28T22:23:59.637Z,13.30
2022-10-28T22:26:30.597Z,13.20
2022-10-28T22:29:01.574Z,13.10
2022-10-28T22:31:33.292Z,13.10
2022-10-28T22:34:01.978Z,13.20
2022-10-28T22:36:31.132Z,13.30
2022-10-28T22:38:59.597Z,13.30
2022-10-28T22:41:32.061Z,13.40
2022-10-28T22:44:02.144Z,13.40
2022-10-28T22:46:32.498Z,13.30
2022-10-28T22:49:00.772Z,13.30
2022-10-28T22:51:28.680Z,13.30
2022-10-28T22:53:56.711Z,13.30
2022-10-28T22:56:26.239Z,13.20
2022-10-28T22:58:56.203Z,13.20
2022-10-28T23:01:25.829Z,13.10
2022-10-28T23:03:54.631Z,13.10
2022-10-28T23:06:26.090Z,13.20
2022-10-28T23:08:53.974Z,13.10
2022-10-28T23:11:23.415Z,13.10
2022-10-28T23:13:55.550Z,13.10
2022-10-28T23:16:24.637Z,13.10
2022-10-28T23:18:56.513Z,13.10
2022-10-28T23:21:26.630Z,13.00
2022-10-28T23:23:59.559Z,13.00
2022-10-28T23:26:29.260Z,13.00
2022-10-28T23:28:59.397Z,13.10
2022-10-28T23:31:30.470Z,13.10
2022-10-28T23:34:02.684Z,13.10
2022-10-28T23:36:30.614Z,13.20
2022-10-28T23:38:58.582Z,13.10
2022-10-28T23:41:26.482Z,13.00
2022-10-28T23:43:59.492Z,13.00
2022-10-28T23:46:27.427Z,13.00
2022-10-28T23:48:55.398Z,13.00
2022-10-28T23:51:23.309Z,13.00
2022-10-28T23:53:51.180Z,13.00
2022-10-28T23:56:19.166Z,13.10
2022-10-28T23:58:47.100Z,13.10
